sensor_id;sensor_type;location;lat;lon;timestamp;P1;durP1;ratioP1;P2;durP2;ratioP2
14015;SDS011;7083;48.854;9.158;2022-10-14T00:00:45;276.27;;;263.63;;
14015;SDS011;7083;48.854;9.158;2022-10-14T00:03:11;294.47;;;281.13;;
14015;SDS011;7083;48.854;9.158;2022-10-14T00:05:38;276.37;;;263.47;;
14015;SDS011;7083;48.854;9.158;2022-10-14T00:08:06;265.53;;;253.40;;
14015;SDS011;7083;48.854;9.158;2022-10-14T00:10:35;282.53;;;268.67;;
14015;SDS011;7083;48.854;9.158;2022-10-14T00:13:03;283.13;;;270.23;;
14015;SDS011;7083;48.854;9.158;2022-10-14T00:15:31;296.43;;;282.43;;
14015;SDS011;7083;48.854;9.158;2022-10-14T00:18:03;306.23;;;292.03;;
14015;SDS011;7083;48.854;9.158;2022-10-14T00:20:30;307.57;;;293.33;;
14015;SDS011;7083;48.854;9.158;2022-10-14T00:22:57;314.93;;;300.27;;
14015;SDS011;7083;48.854;9.158;2022-10-14T00:25:24;316.97;;;301.70;;
14015;SDS011;7083;48.854;9.158;2022-10-14T00:27:52;313.67;;;299.50;;
14015;SDS011;7083;48.854;9.158;2022-10-14T00:30:19;306.07;;;291.83;;
14015;SDS011;7083;48.854;9.158;2022-10-14T00:32:47;321.37;;;306.17;;
14015;SDS011;7083;48.854;9.158;2022-10-14T00:35:14;328.80;;;312.83;;
14015;SDS011;7083;48.854;9.158;2022-10-14T00:37:40;315.10;;;300.47;;
14015;SDS011;7083;48.854;9.158;2022-10-14T00:40:08;307.27;;;292.93;;
14015;SDS011;7083;48.854;9.158;2022-10-14T00:42:35;309.00;;;294.90;;
14015;SDS011;7083;48.854;9.158;2022-10-14T00:45:06;313.13;;;298.43;;
14015;SDS011;7083;48.854;9.158;2022-10-14T00:47:38;321.37;;;306.30;;
14015;SDS011;7083;48.854;9.158;2022-10-14T00:50:08;320.40;;;305.10;;
14015;SDS011;7083;48.854;9.158;2022-10-14T00:52:37;315.03;;;300.07;;
14015;SDS011;7083;48.854;9.158;2022-10-14T00:55:05;318.50;;;303.43;;
14015;SDS011;7083;48.854;9.158;2022-10-14T00:57:36;321.57;;;306.37;;
14015;SDS011;7083;48.854;9.158;2022-10-14T01:00:05;324.17;;;307.40;;
14015;SDS011;7083;48.854;9.158;2022-10-14T01:02:33;318.77;;;304.23;;
14015;SDS011;7083;48.854;9.158;2022-10-14T01:05:00;303.80;;;289.90;;
14015;SDS011;7083;48.854;9.158;2022-10-14T01:07:33;320.07;;;305.30;;
14015;SDS011;7083;48.854;9.158;2022-10-14T01:10:07;297.93;;;284.13;;
14015;SDS011;7083;48.854;9.158;2022-10-14T01:12:41;311.30;;;295.73;;
14015;SDS011;7083;48.854;9.158;2022-10-14T01:15:21;317.43;;;302.20;;
14015;SDS011;7083;48.854;9.158;2022-10-14T01:17:56;310.90;;;296.50;;
14015;SDS011;7083;48.854;9.158;2022-10-14T01:23:54;299.87;;;285.73;;
14015;SDS011;7083;48.854;9.158;2022-10-14T01:26:55;298.10;;;284.50;;
14015;SDS011;7083;48.854;9.158;2022-10-14T01:32:36;289.07;;;275.90;;
14015;SDS011;7083;48.854;9.158;2022-10-14T01:35:12;288.87;;;275.43;;
14015;SDS011;7083;48.854;9.158;2022-10-14T01:37:50;284.37;;;270.80;;
14015;SDS011;7083;48.854;9.158;2022-10-14T01:40:21;290.70;;;277.43;;
14015;SDS011;7083;48.854;9.158;2022-10-14T01:42:53;287.03;;;273.83;;
14015;SDS011;7083;48.854;9.158;2022-10-14T01:45:23;299.97;;;285.13;;
14015;SDS011;7083;48.854;9.158;2022-10-14T01:47:52;317.50;;;303.50;;
14015;SDS011;7083;48.854;9.158;2022-10-14T01:50:21;333.57;;;317.80;;
14015;SDS011;7083;48.854;9.158;2022-10-14T01:52:51;336.73;;;321.50;;
14015;SDS011;7083;48.854;9.158;2022-10-14T01:55:23;335.57;;;320.30;;
14015;SDS011;7083;48.854;9.158;2022-10-14T01:57:54;339.90;;;324.70;;
14015;SDS011;7083;48.854;9.158;2022-10-14T02:00:24;344.43;;;328.30;;
14015;SDS011;7083;48.854;9.158;2022-10-14T02:02:50;349.37;;;333.20;;
14015;SDS011;7083;48.854;9.158;2022-10-14T02:05:18;364.27;;;346.83;;
14015;SDS011;7083;48.854;9.158;2022-10-14T02:07:48;363.27;;;346.43;;
14015;SDS011;7083;48.854;9.158;2022-10-14T02:10:26;356.30;;;339.33;;
14015;SDS011;7083;48.854;9.158;2022-10-14T02:13:05;365.20;;;347.00;;
14015;SDS011;7083;48.854;9.158;2022-10-14T02:15:47;354.17;;;337.53;;
14015;SDS011;7083;48.854;9.158;2022-10-14T02:18:24;347.13;;;330.73;;
14015;SDS011;7083;48.854;9.158;2022-10-14T02:20:56;348.17;;;331.83;;
14015;SDS011;7083;48.854;9.158;2022-10-14T02:23:31;350.97;;;334.73;;
14015;SDS011;7083;48.854;9.158;2022-10-14T02:26:03;362.40;;;345.10;;
14015;SDS011;7083;48.854;9.158;2022-10-14T02:28:31;357.70;;;340.50;;
14015;SDS011;7083;48.854;9.158;2022-10-14T02:31:01;359.30;;;342.13;;
14015;SDS011;7083;48.854;9.158;2022-10-14T02:33:33;360.80;;;344.33;;
14015;SDS011;7083;48.854;9.158;2022-10-14T02:36:05;357.50;;;340.80;;
14015;SDS011;7083;48.854;9.158;2022-10-14T02:38:34;339.60;;;324.27;;
14015;SDS011;7083;48.854;9.158;2022-10-14T02:41:02;340.83;;;324.77;;
14015;SDS011;7083;48.854;9.158;2022-10-14T02:43:33;339.03;;;323.00;;
14015;SDS011;7083;48.854;9.158;2022-10-14T02:46:01;342.97;;;327.67;;
14015;SDS011;7083;48.854;9.158;2022-10-14T02:48:29;339.00;;;323.47;;
14015;SDS011;7083;48.854;9.158;2022-10-14T02:50:56;317.60;;;303.10;;
14015;SDS011;7083;48.854;9.158;2022-10-14T02:53:23;317.40;;;303.30;;
14015;SDS011;7083;48.854;9.158;2022-10-14T02:55:49;301.97;;;288.30;;
14015;SDS011;7083;48.854;9.158;2022-10-14T02:58:16;300.63;;;286.43;;
14015;SDS011;7083;48.854;9.158;2022-10-14T03:00:43;280.10;;;266.90;;
14015;SDS011;7083;48.854;9.158;2022-10-14T03:03:11;242.77;;;231.67;;
14015;SDS011;7083;48.854;9.158;2022-10-14T03:05:38;221.87;;;211.53;;
14015;SDS011;7083;48.854;9.158;2022-10-14T03:08:04;209.77;;;199.67;;
14015;SDS011;7083;48.854;9.158;2022-10-14T03:10:31;198.57;;;188.23;;
14015;SDS011;7083;48.854;9.158;2022-10-14T03:12:58;199.13;;;189.33;;
14015;SDS011;7083;48.854;9.158;2022-10-14T03:15:24;205.47;;;195.03;;
14015;SDS011;7083;48.854;9.158;2022-10-14T03:17:51;204.20;;;193.67;;
14015;SDS011;7083;48.854;9.158;2022-10-14T03:20:19;196.00;;;186.40;;
14015;SDS011;7083;48.854;9.158;2022-10-14T03:22:46;185.77;;;177.07;;
14015;SDS011;7083;48.854;9.158;2022-10-14T03:25:13;200.30;;;190.63;;
14015;SDS011;7083;48.854;9.158;2022-10-14T03:27:40;214.90;;;204.10;;
14015;SDS011;7083;48.854;9.158;2022-10-14T03:30:07;214.43;;;203.73;;
14015;SDS011;7083;48.854;9.158;2022-10-14T03:32:34;233.63;;;222.00;;
14015;SDS011;7083;48.854;9.158;2022-10-14T03:35:01;224.13;;;213.47;;
14015;SDS011;7083;48.854;9.158;2022-10-14T03:37:29;245.47;;;233.00;;
14015;SDS011;7083;48.854;9.158;2022-10-14T03:39:55;222.80;;;212.00;;
14015;SDS011;7083;48.854;9.158;2022-10-14T03:42:22;199.07;;;189.33;;
14015;SDS011;7083;48.854;9.158;2022-10-14T03:44:49;203.27;;;193.37;;
14015;SDS011;7083;48.854;9.158;2022-10-14T03:47:16;201.70;;;191.93;;
14015;SDS011;7083;48.854;9.158;2022-10-14T03:49:42;213.70;;;203.00;;
14015;SDS011;7083;48.854;9.158;2022-10-14T03:52:09;225.97;;;214.33;;
14015;SDS011;7083;48.854;9.158;2022-10-14T03:54:37;208.83;;;198.53;;
14015;SDS011;7083;48.854;9.158;2022-10-14T03:57:04;213.00;;;202.30;;
14015;SDS011;7083;48.854;9.158;2022-10-14T03:59:30;221.83;;;210.93;;
14015;SDS011;7083;48.854;9.158;2022-10-14T04:01:57;210.43;;;199.80;;
14015;SDS011;7083;48.854;9.158;2022-10-14T04:04:24;209.20;;;198.60;;
14015;SDS011;7083;48.854;9.158;2022-10-14T04:06:50;213.47;;;202.07;;
14015;SDS011;7083;48.854;9.158;2022-10-14T04:09:18;217.93;;;206.03;;
14015;SDS011;7083;48.854;9.158;2022-10-14T04:11:46;210.83;;;200.00;;
14015;SDS011;7083;48.854;9.158;2022-10-14T04:14:12;224.10;;;212.20;;
14015;SDS011;7083;48.854;9.158;2022-10-14T04:16:39;208.27;;;198.07;;
14015;SDS011;7083;48.854;9.158;2022-10-14T04:19:06;231.43;;;219.43;;
14015;SDS011;7083;48.854;9.158;2022-10-14T04:21:33;209.10;;;198.93;;
14015;SDS011;7083;48.854;9.158;2022-10-14T04:23:59;223.23;;;212.20;;
14015;SDS011;7083;48.854;9.158;2022-10-14T04:26:26;206.07;;;195.93;;
14015;SDS011;7083;48.854;9.158;2022-10-14T04:28:54;210.87;;;199.90;;
14015;SDS011;7083;48.854;9.158;2022-10-14T04:31:21;225.27;;;213.30;;
14015;SDS011;7083;48.854;9.158;2022-10-14T04:33:48;229.87;;;217.93;;
14015;SDS011;7083;48.854;9.158;2022-10-14T04:36:14;222.73;;;211.60;;
14015;SDS011;7083;48.854;9.158;2022-10-14T04:38:41;229.00;;;217.37;;
14015;SDS011;7083;48.854;9.158;2022-10-14T04:41:08;228.20;;;217.33;;
14015;SDS011;7083;48.854;9.158;2022-10-14T04:43:35;225.67;;;214.53;;
14015;SDS011;7083;48.854;9.158;2022-10-14T04:46:03;226.33;;;214.57;;
14015;SDS011;7083;48.854;9.158;2022-10-14T04:48:30;210.80;;;200.23;;
14015;SDS011;7083;48.854;9.158;2022-10-14T04:50:56;211.83;;;201.80;;
14015;SDS011;7083;48.854;9.158;2022-10-14T04:53:23;229.63;;;218.13;;
14015;SDS011;7083;48.854;9.158;2022-10-14T04:55:50;241.17;;;228.37;;
14015;SDS011;7083;48.854;9.158;2022-10-14T04:58:16;217.80;;;207.00;;
14015;SDS011;7083;48.854;9.158;2022-10-14T05:00:43;210.23;;;199.50;;
14015;SDS011;7083;48.854;9.158;2022-10-14T05:03:11;223.67;;;212.57;;
14015;SDS011;7083;48.854;9.158;2022-10-14T05:05:38;232.53;;;220.10;;
14015;SDS011;7083;48.854;9.158;2022-10-14T05:08:04;221.07;;;209.93;;
14015;SDS011;7083;48.854;9.158;2022-10-14T05:10:32;222.40;;;210.80;;
14015;SDS011;7083;48.854;9.158;2022-10-14T05:12:59;229.77;;;218.37;;
14015;SDS011;7083;48.854;9.158;2022-10-14T05:15:25;224.87;;;212.53;;
14015;SDS011;7083;48.854;9.158;2022-10-14T05:17:52;215.80;;;204.87;;
14015;SDS011;7083;48.854;9.158;2022-10-14T05:20:20;230.30;;;218.73;;
14015;SDS011;7083;48.854;9.158;2022-10-14T05:22:47;239.63;;;227.03;;
14015;SDS011;7083;48.854;9.158;2022-10-14T05:25:14;209.80;;;199.37;;
14015;SDS011;7083;48.854;9.158;2022-10-14T05:27:41;194.73;;;184.80;;
14015;SDS011;7083;48.854;9.158;2022-10-14T05:30:08;197.27;;;187.10;;
14015;SDS011;7083;48.854;9.158;2022-10-14T05:32:35;195.53;;;184.87;;
14015;SDS011;7083;48.854;9.158;2022-10-14T05:35:02;202.57;;;192.23;;
14015;SDS011;7083;48.854;9.158;2022-10-14T05:37:30;218.37;;;205.70;;
14015;SDS011;7083;48.854;9.158;2022-10-14T05:39:57;210.93;;;200.43;;
14015;SDS011;7083;48.854;9.158;2022-10-14T05:42:24;217.67;;;206.60;;
14015;SDS011;7083;48.854;9.158;2022-10-14T05:44:50;213.10;;;202.97;;
14015;SDS011;7083;48.854;9.158;2022-10-14T05:47:17;217.80;;;207.53;;
14015;SDS011;7083;48.854;9.158;2022-10-14T05:49:44;228.13;;;217.07;;
14015;SDS011;7083;48.854;9.158;2022-10-14T05:52:11;214.17;;;202.93;;
14015;SDS011;7083;48.854;9.158;2022-10-14T05:54:39;227.90;;;215.93;;
14015;SDS011;7083;48.854;9.158;2022-10-14T05:57:06;230.53;;;218.07;;
14015;SDS011;7083;48.854;9.158;2022-10-14T05:59:33;222.10;;;211.47;;
14015;SDS011;7083;48.854;9.158;2022-10-14T06:02:00;213.20;;;202.90;;
14015;SDS011;7083;48.854;9.158;2022-10-14T06:04:27;225.07;;;214.20;;
14015;SDS011;7083;48.854;9.158;2022-10-14T06:06:54;229.90;;;218.63;;
14015;SDS011;7083;48.854;9.158;2022-10-14T06:09:21;236.10;;;224.07;;
14015;SDS011;7083;48.854;9.158;2022-10-14T06:11:49;247.57;;;235.17;;
14015;SDS011;7083;48.854;9.158;2022-10-14T06:14:15;267.30;;;253.07;;
14015;SDS011;7083;48.854;9.158;2022-10-14T06:16:42;244.50;;;232.90;;
14015;SDS011;7083;48.854;9.158;2022-10-14T06:19:09;252.77;;;240.00;;
14015;SDS011;7083;48.854;9.158;2022-10-14T06:21:35;263.53;;;250.53;;
14015;SDS011;7083;48.854;9.158;2022-10-14T06:24:02;274.53;;;260.43;;
14015;SDS011;7083;48.854;9.158;2022-10-14T06:26:29;272.93;;;259.90;;
14015;SDS011;7083;48.854;9.158;2022-10-14T06:28:57;284.33;;;269.90;;
14015;SDS011;7083;48.854;9.158;2022-10-14T06:31:24;266.13;;;253.27;;
14015;SDS011;7083;48.854;9.158;2022-10-14T06:33:51;257.30;;;244.43;;
14015;SDS011;7083;48.854;9.158;2022-10-14T06:36:17;267.90;;;254.47;;
14015;SDS011;7083;48.854;9.158;2022-10-14T06:38:44;261.37;;;247.80;;
14015;SDS011;7083;48.854;9.158;2022-10-14T06:41:11;252.30;;;239.50;;
14015;SDS011;7083;48.854;9.158;2022-10-14T06:43:38;262.47;;;249.17;;
14015;SDS011;7083;48.854;9.158;2022-10-14T06:46:06;257.27;;;244.30;;
14015;SDS011;7083;48.854;9.158;2022-10-14T06:48:32;259.67;;;246.07;;
14015;SDS011;7083;48.854;9.158;2022-10-14T06:50:59;255.57;;;243.00;;
14015;SDS011;7083;48.854;9.158;2022-10-14T06:53:27;266.03;;;252.80;;
14015;SDS011;7083;48.854;9.158;2022-10-14T06:55:57;255.53;;;243.23;;
14015;SDS011;7083;48.854;9.158;2022-10-14T06:58:25;264.97;;;251.40;;
14015;SDS011;7083;48.854;9.158;2022-10-14T07:00:52;275.10;;;260.97;;
14015;SDS011;7083;48.854;9.158;2022-10-14T07:03:20;270.63;;;257.23;;
14015;SDS011;7083;48.854;9.158;2022-10-14T07:05:47;302.47;;;287.80;;
14015;SDS011;7083;48.854;9.158;2022-10-14T07:08:14;315.03;;;299.97;;
14015;SDS011;7083;48.854;9.158;2022-10-14T07:10:40;334.70;;;318.03;;
14015;SDS011;7083;48.854;9.158;2022-10-14T07:13:07;352.77;;;335.47;;
14015;SDS011;7083;48.854;9.158;2022-10-14T07:15:35;368.00;;;350.13;;
14015;SDS011;7083;48.854;9.158;2022-10-14T07:18:03;375.13;;;356.77;;
14015;SDS011;7083;48.854;9.158;2022-10-14T07:20:31;365.50;;;347.57;;
14015;SDS011;7083;48.854;9.158;2022-10-14T07:22:58;370.43;;;352.70;;
14015;SDS011;7083;48.854;9.158;2022-10-14T07:25:25;383.87;;;364.87;;
14015;SDS011;7083;48.854;9.158;2022-10-14T07:27:52;387.70;;;369.40;;
14015;SDS011;7083;48.854;9.158;2022-10-14T07:30:19;399.23;;;380.20;;
14015;SDS011;7083;48.854;9.158;2022-10-14T07:32:45;398.83;;;379.67;;
14015;SDS011;7083;48.854;9.158;2022-10-14T07:35:12;408.27;;;388.43;;
14015;SDS011;7083;48.854;9.158;2022-10-14T07:37:40;408.83;;;388.13;;
14015;SDS011;7083;48.854;9.158;2022-10-14T07:40:08;400.47;;;381.13;;
14015;SDS011;7083;48.854;9.158;2022-10-14T07:42:35;401.57;;;382.70;;
14015;SDS011;7083;48.854;9.158;2022-10-14T07:45:03;402.90;;;384.13;;
14015;SDS011;7083;48.854;9.158;2022-10-14T07:47:31;420.10;;;399.67;;
14015;SDS011;7083;48.854;9.158;2022-10-14T07:49:58;435.63;;;414.67;;
14015;SDS011;7083;48.854;9.158;2022-10-14T07:52:25;458.40;;;435.80;;
14015;SDS011;7083;48.854;9.158;2022-10-14T07:54:53;444.90;;;423.77;;
14015;SDS011;7083;48.854;9.158;2022-10-14T07:57:19;454.50;;;432.83;;
14015;SDS011;7083;48.854;9.158;2022-10-14T07:59:47;488.90;;;464.87;;
14015;SDS011;7083;48.854;9.158;2022-10-14T08:02:13;488.60;;;464.83;;
14015;SDS011;7083;48.854;9.158;2022-10-14T08:04:40;496.53;;;471.43;;
14015;SDS011;7083;48.854;9.158;2022-10-14T08:07:07;482.73;;;458.73;;
14015;SDS011;7083;48.854;9.158;2022-10-14T08:09:34;499.30;;;474.43;;
14015;SDS011;7083;48.854;9.158;2022-10-14T08:12:03;505.30;;;480.43;;
14015;SDS011;7083;48.854;9.158;2022-10-14T08:14:29;513.70;;;488.33;;
14015;SDS011;7083;48.854;9.158;2022-10-14T08:16:56;495.63;;;470.80;;
14015;SDS011;7083;48.854;9.158;2022-10-14T08:19:23;523.37;;;496.53;;
14015;SDS011;7083;48.854;9.158;2022-10-14T08:21:50;520.03;;;493.70;;
14015;SDS011;7083;48.854;9.158;2022-10-14T08:24:17;524.37;;;497.23;;
14015;SDS011;7083;48.854;9.158;2022-10-14T08:26:47;517.80;;;491.17;;
14015;SDS011;7083;48.854;9.158;2022-10-14T08:29:17;509.20;;;483.33;;
14015;SDS011;7083;48.854;9.158;2022-10-14T08:31:46;528.80;;;501.40;;
14015;SDS011;7083;48.854;9.158;2022-10-14T08:34:13;512.33;;;486.47;;
14015;SDS011;7083;48.854;9.158;2022-10-14T08:36:40;518.97;;;492.20;;
14015;SDS011;7083;48.854;9.158;2022-10-14T08:39:06;526.60;;;499.20;;
14015;SDS011;7083;48.854;9.158;2022-10-14T08:41:49;512.70;;;485.30;;
14015;SDS011;7083;48.854;9.158;2022-10-14T08:44:38;501.97;;;476.20;;
14015;SDS011;7083;48.854;9.158;2022-10-14T08:47:09;511.83;;;485.53;;
14015;SDS011;7083;48.854;9.158;2022-10-14T08:49:42;518.73;;;491.60;;
14015;SDS011;7083;48.854;9.158;2022-10-14T08:52:17;510.93;;;484.30;;
14015;SDS011;7083;48.854;9.158;2022-10-14T08:54:50;504.03;;;478.73;;
14015;SDS011;7083;48.854;9.158;2022-10-14T08:57:21;513.97;;;487.60;;
14015;SDS011;7083;48.854;9.158;2022-10-14T08:59:52;513.40;;;487.10;;
14015;SDS011;7083;48.854;9.158;2022-10-14T09:02:23;510.83;;;484.10;;
14015;SDS011;7083;48.854;9.158;2022-10-14T09:05:00;514.47;;;488.17;;
14015;SDS011;7083;48.854;9.158;2022-10-14T09:07:28;477.77;;;452.60;;
14015;SDS011;7083;48.854;9.158;2022-10-14T09:09:59;456.67;;;432.50;;
14015;SDS011;7083;48.854;9.158;2022-10-14T09:12:32;449.53;;;425.13;;
14015;SDS011;7083;48.854;9.158;2022-10-14T09:15:04;485.23;;;458.70;;
14015;SDS011;7083;48.854;9.158;2022-10-14T09:17:39;496.70;;;469.00;;
14015;SDS011;7083;48.854;9.158;2022-10-14T09:20:18;512.03;;;483.20;;
14015;SDS011;7083;48.854;9.158;2022-10-14T09:22:50;469.60;;;443.70;;
14015;SDS011;7083;48.854;9.158;2022-10-14T09:25:25;498.37;;;470.27;;
14015;SDS011;7083;48.854;9.158;2022-10-14T09:27:53;537.63;;;506.20;;
14015;SDS011;7083;48.854;9.158;2022-10-14T09:30:21;537.53;;;506.67;;
14015;SDS011;7083;48.854;9.158;2022-10-14T09:32:48;564.40;;;531.07;;
14015;SDS011;7083;48.854;9.158;2022-10-14T09:35:19;572.00;;;538.07;;
14015;SDS011;7083;48.854;9.158;2022-10-14T09:37:49;563.67;;;530.57;;
14015;SDS011;7083;48.854;9.158;2022-10-14T09:40:19;590.90;;;555.20;;
14015;SDS011;7083;48.854;9.158;2022-10-14T09:42:53;594.83;;;558.83;;
14015;SDS011;7083;48.854;9.158;2022-10-14T09:45:24;712.23;;;667.07;;
14015;SDS011;7083;48.854;9.158;2022-10-14T09:47:53;722.33;;;675.27;;
14015;SDS011;7083;48.854;9.158;2022-10-14T09:50:24;726.53;;;678.83;;
14015;SDS011;7083;48.854;9.158;2022-10-14T09:52:53;761.13;;;710.43;;
14015;SDS011;7083;48.854;9.158;2022-10-14T09:55:23;894.77;;;832.00;;
14015;SDS011;7083;48.854;9.158;2022-10-14T09:58:00;908.17;;;844.20;;
14015;SDS011;7083;48.854;9.158;2022-10-14T10:00:33;888.80;;;826.23;;
14015;SDS011;7083;48.854;9.158;2022-10-14T10:03:02;894.70;;;831.60;;
14015;SDS011;7083;48.854;9.158;2022-10-14T10:05:30;893.10;;;830.17;;
14015;SDS011;7083;48.854;9.158;2022-10-14T10:07:59;957.63;;;886.57;;
14015;SDS011;7083;48.854;9.158;2022-10-14T10:10:29;1017.43;;;937.13;;
14015;SDS011;7083;48.854;9.158;2022-10-14T10:12:56;1026.20;;;946.33;;
14015;SDS011;7083;48.854;9.158;2022-10-14T10:15:23;1063.67;;;976.87;;
14015;SDS011;7083;48.854;9.158;2022-10-14T10:17:51;1054.40;;;969.83;;
14015;SDS011;7083;48.854;9.158;2022-10-14T10:20:20;1153.27;;;999.90;;
14015;SDS011;7083;48.854;9.158;2022-10-14T10:22:52;1182.80;;;999.90;;
14015;SDS011;7083;48.854;9.158;2022-10-14T10:25:21;1163.80;;;999.90;;
14015;SDS011;7083;48.854;9.158;2022-10-14T10:27:53;1205.93;;;999.90;;
14015;SDS011;7083;48.854;9.158;2022-10-14T10:30:25;1217.83;;;999.90;;
14015;SDS011;7083;48.854;9.158;2022-10-14T10:32:57;1260.13;;;999.90;;
14015;SDS011;7083;48.854;9.158;2022-10-14T10:35:51;1258.70;;;999.90;;
14015;SDS011;7083;48.854;9.158;2022-10-14T10:38:28;1195.07;;;999.90;;
14015;SDS011;7083;48.854;9.158;2022-10-14T10:41:02;1170.10;;;999.90;;
14015;SDS011;7083;48.854;9.158;2022-10-14T10:43:44;1129.53;;;999.90;;
14015;SDS011;7083;48.854;9.158;2022-10-14T10:46:33;1305.77;;;999.90;;
14015;SDS011;7083;48.854;9.158;2022-10-14T10:49:18;1836.03;;;999.90;;
14015;SDS011;7083;48.854;9.158;2022-10-14T10:52:05;1499.67;;;999.90;;
14015;SDS011;7083;48.854;9.158;2022-10-14T10:54:45;1476.90;;;999.90;;
14015;SDS011;7083;48.854;9.158;2022-10-14T10:57:23;1680.50;;;999.90;;
14015;SDS011;7083;48.854;9.158;2022-10-14T11:00:02;1689.50;;;999.90;;
14015;SDS011;7083;48.854;9.158;2022-10-14T11:02:45;1798.07;;;999.90;;
14015;SDS011;7083;48.854;9.158;2022-10-14T11:05:22;1898.70;;;999.90;;
14015;SDS011;7083;48.854;9.158;2022-10-14T11:08:06;1997.70;;;999.90;;
14015;SDS011;7083;48.854;9.158;2022-10-14T11:11:00;1999.90;;;999.90;;
14015;SDS011;7083;48.854;9.158;2022-10-14T11:13:54;1999.90;;;999.90;;
14015;SDS011;7083;48.854;9.158;2022-10-14T11:16:26;1999.90;;;999.90;;
14015;SDS011;7083;48.854;9.158;2022-10-14T11:19:01;1999.90;;;999.90;;
14015;SDS011;7083;48.854;9.158;2022-10-14T11:21:38;1841.87;;;999.90;;
14015;SDS011;7083;48.854;9.158;2022-10-14T11:24:12;1723.10;;;999.90;;
14015;SDS011;7083;48.854;9.158;2022-10-14T11:29:51;1816.70;;;999.90;;
14015;SDS011;7083;48.854;9.158;2022-10-14T11:32:33;1382.87;;;999.90;;
14015;SDS011;7083;48.854;9.158;2022-10-14T11:35:11;1258.03;;;999.90;;
14015;SDS011;7083;48.854;9.158;2022-10-14T11:37:48;1122.83;;;999.90;;
14015;SDS011;7083;48.854;9.158;2022-10-14T11:40:26;956.70;;;884.30;;
14015;SDS011;7083;48.854;9.158;2022-10-14T11:43:04;928.80;;;859.77;;
14015;SDS011;7083;48.854;9.158;2022-10-14T11:45:45;891.10;;;828.03;;
14015;SDS011;7083;48.854;9.158;2022-10-14T11:48:20;926.13;;;858.97;;
14015;SDS011;7083;48.854;9.158;2022-10-14T11:50:53;932.10;;;864.53;;
14015;SDS011;7083;48.854;9.158;2022-10-14T11:53:26;916.50;;;850.53;;
14015;SDS011;7083;48.854;9.158;2022-10-14T11:56:08;911.20;;;845.17;;
14015;SDS011;7083;48.854;9.158;2022-10-14T11:58:42;884.10;;;820.50;;
14015;SDS011;7083;48.854;9.158;2022-10-14T12:01:12;897.30;;;834.37;;
14015;SDS011;7083;48.854;9.158;2022-10-14T12:03:44;974.47;;;902.47;;
14015;SDS011;7083;48.854;9.158;2022-10-14T12:06:17;1030.60;;;949.77;;
14015;SDS011;7083;48.854;9.158;2022-10-14T12:08:49;1049.60;;;964.23;;
14015;SDS011;7083;48.854;9.158;2022-10-14T12:11:23;1000.43;;;923.07;;
14015;SDS011;7083;48.854;9.158;2022-10-14T12:13:56;1015.53;;;938.17;;
14015;SDS011;7083;48.854;9.158;2022-10-14T12:16:29;997.13;;;921.30;;
14015;SDS011;7083;48.854;9.158;2022-10-14T12:18:57;1098.80;;;999.90;;
14015;SDS011;7083;48.854;9.158;2022-10-14T12:21:26;1158.27;;;999.90;;
14015;SDS011;7083;48.854;9.158;2022-10-14T12:23:59;1158.83;;;999.90;;
14015;SDS011;7083;48.854;9.158;2022-10-14T12:26:41;1214.90;;;999.90;;
14015;SDS011;7083;48.854;9.158;2022-10-14T12:29:16;1220.83;;;999.90;;
14015;SDS011;7083;48.854;9.158;2022-10-14T12:31:47;1219.73;;;999.90;;
14015;SDS011;7083;48.854;9.158;2022-10-14T12:34:31;1273.57;;;999.90;;
14015;SDS011;7083;48.854;9.158;2022-10-14T12:37:00;1319.23;;;999.90;;
14015;SDS011;7083;48.854;9.158;2022-10-14T12:43:16;1730.80;;;999.90;;
14015;SDS011;7083;48.854;9.158;2022-10-14T12:45:46;1999.90;;;999.90;;
14015;SDS011;7083;48.854;9.158;2022-10-14T12:48:22;1944.63;;;999.90;;
14015;SDS011;7083;48.854;9.158;2022-10-14T12:50:51;1999.90;;;999.90;;
14015;SDS011;7083;48.854;9.158;2022-10-14T12:53:22;1999.90;;;999.90;;
14015;SDS011;7083;48.854;9.158;2022-10-14T12:55:53;1999.90;;;999.90;;
14015;SDS011;7083;48.854;9.158;2022-10-14T12:58:26;1999.90;;;999.90;;
14015;SDS011;7083;48.854;9.158;2022-10-14T13:00:56;1999.90;;;999.90;;
14015;SDS011;7083;48.854;9.158;2022-10-14T13:03:27;1999.90;;;999.90;;
14015;SDS011;7083;48.854;9.158;2022-10-14T13:12:17;1682.83;;;999.90;;
14015;SDS011;7083;48.854;9.158;2022-10-14T13:21:20;1999.90;;;999.90;;
14015;SDS011;7083;48.854;9.158;2022-10-14T13:23:53;1999.90;;;999.90;;
14015;SDS011;7083;48.854;9.158;2022-10-14T13:26:22;1999.90;;;999.90;;
14015;SDS011;7083;48.854;9.158;2022-10-14T13:29:00;1999.90;;;999.90;;
14015;SDS011;7083;48.854;9.158;2022-10-14T13:31:39;1999.90;;;999.90;;
14015;SDS011;7083;48.854;9.158;2022-10-14T13:34:15;1999.90;;;999.90;;
14015;SDS011;7083;48.854;9.158;2022-10-14T13:36:55;1999.90;;;999.90;;
14015;SDS011;7083;48.854;9.158;2022-10-14T13:39:27;1999.90;;;999.90;;
14015;SDS011;7083;48.854;9.158;2022-10-14T13:41:56;1999.90;;;999.90;;
14015;SDS011;7083;48.854;9.158;2022-10-14T13:44:25;1999.90;;;999.90;;
14015;SDS011;7083;48.854;9.158;2022-10-14T13:46:52;1999.90;;;999.90;;
14015;SDS011;7083;48.854;9.158;2022-10-14T13:49:20;1999.90;;;999.90;;
14015;SDS011;7083;48.854;9.158;2022-10-14T13:51:54;1999.90;;;999.90;;
14015;SDS011;7083;48.854;9.158;2022-10-14T13:54:25;1999.90;;;999.90;;
14015;SDS011;7083;48.854;9.158;2022-10-14T13:56:55;1999.90;;;999.90;;
14015;SDS011;7083;48.854;9.158;2022-10-14T13:59:23;1999.90;;;999.90;;
14015;SDS011;7083;48.854;9.158;2022-10-14T14:01:53;1999.90;;;999.90;;
14015;SDS011;7083;48.854;9.158;2022-10-14T14:04:23;1999.90;;;999.90;;
14015;SDS011;7083;48.854;9.158;2022-10-14T14:06:52;1999.90;;;999.90;;
14015;SDS011;7083;48.854;9.158;2022-10-14T14:09:20;1999.90;;;999.90;;
14015;SDS011;7083;48.854;9.158;2022-10-14T14:11:49;1999.90;;;999.90;;
14015;SDS011;7083;48.854;9.158;2022-10-14T14:14:18;1999.90;;;999.90;;
14015;SDS011;7083;48.854;9.158;2022-10-14T14:16:51;1999.90;;;999.90;;
14015;SDS011;7083;48.854;9.158;2022-10-14T14:19:20;1999.90;;;999.90;;
14015;SDS011;7083;48.854;9.158;2022-10-14T14:21:49;1926.40;;;999.90;;
14015;SDS011;7083;48.854;9.158;2022-10-14T14:24:17;1612.07;;;999.90;;
14015;SDS011;7083;48.854;9.158;2022-10-14T14:26:47;1485.37;;;999.90;;
14015;SDS011;7083;48.854;9.158;2022-10-14T14:29:14;1251.80;;;999.90;;
14015;SDS011;7083;48.854;9.158;2022-10-14T14:31:43;1048.17;;;963.30;;
14015;SDS011;7083;48.854;9.158;2022-10-14T14:34:12;808.40;;;753.37;;
14015;SDS011;7083;48.854;9.158;2022-10-14T14:36:42;777.57;;;726.23;;
14015;SDS011;7083;48.854;9.158;2022-10-14T14:39:14;838.80;;;778.87;;
14015;SDS011;7083;48.854;9.158;2022-10-14T14:41:48;699.57;;;655.80;;
14015;SDS011;7083;48.854;9.158;2022-10-14T14:44:17;710.73;;;666.87;;
14015;SDS011;7083;48.854;9.158;2022-10-14T14:46:47;727.20;;;681.63;;
14015;SDS011;7083;48.854;9.158;2022-10-14T14:49:16;703.33;;;659.70;;